Time,TemperatureF,DewpointF,PressureIn,WindDirection,WindDirectionDegrees,WindSpeedMPH,WindSpeedGustMPH,Humidity,HourlyPrecipIn,Conditions,Clouds,dailyrainin,SoftwareType,DateUTC
2013-06-27 00:02:00,70.0,68.0,29.58,SW,223,0.0,0.0,93,0.00,,,0.19,,2013-06-27 05:02:00,
2013-06-27 00:12:00,70.0,68.0,29.58,SW,223,0.0,0.0,93,0.00,,,0.19,,2013-06-27 05:12:00,
2013-06-27 00:22:00,70.0,68.0,29.58,SW,223,0.0,0.0,93,0.00,,,0.19,,2013-06-27 05:22:00,
2013-06-27 00:32:00,70.0,68.0,29.58,SW,223,0.0,0.0,93,0.00,,,0.19,,2013-06-27 05:32:00,
2013-06-27 00:42:00,69.0,68.0,29.57,SW,223,0.0,0.0,95,0.00,,,0.19,,2013-06-27 05:42:00,
2013-06-27 00:53:00,69.0,68.0,29.57,SW,223,3.0,3.0,95,0.00,,,0.19,,2013-06-27 05:53:00,
2013-06-27 01:01:00,70.0,69.0,29.57,WSW,250,1.0,2.0,96,0.00,,,0.19,,2013-06-27 06:01:00,
2013-06-27 01:12:00,70.0,69.0,29.57,WSW,250,2.0,3.0,96,0.00,,,0.19,,2013-06-27 06:12:00,
2013-06-27 01:22:00,69.0,68.0,29.57,WSW,250,0.0,1.0,96,0.00,,,0.19,,2013-06-27 06:22:00,
2013-06-27 01:34:00,69.0,68.0,29.57,WSW,250,0.0,0.0,96,0.00,,,0.19,,2013-06-27 06:34:00,
2013-06-27 01:43:00,69.0,68.0,29.57,WSW,250,0.0,0.0,96,0.00,,,0.19,,2013-06-27 06:43:00,
2013-06-27 01:53:00,69.0,68.0,29.57,WSW,250,0.0,1.0,96,0.00,,,0.19,,2013-06-27 06:53:00,
2013-06-27 02:02:00,69.0,68.0,29.57,WSW,250,0.0,0.0,96,0.00,,,0.19,,2013-06-27 07:02:00,
2013-06-27 02:12:00,69.0,68.0,29.57,WSW,250,0.0,0.0,96,0.00,,,0.19,,2013-06-27 07:12:00,
2013-06-27 02:22:00,69.0,68.0,29.57,WSW,250,0.0,0.0,96,0.00,,,0.19,,2013-06-27 07:22:00,
2013-06-27 02:33:00,69.0,68.0,29.56,WSW,250,0.0,0.0,97,0.00,,,0.19,,2013-06-27 07:33:00,
2013-06-27 02:42:00,69.0,68.0,29.56,WSW,250,0.0,0.0,97,0.00,,,0.19,,2013-06-27 07:42:00,
2013-06-27 02:52:00,68.0,67.0,29.57,WSW,250,0.0,2.0,97,0.00,,,0.19,,2013-06-27 07:52:00,
2013-06-27 03:01:00,68.0,67.0,29.57,WSW,250,0.0,2.0,97,0.00,,,0.19,,2013-06-27 08:01:00,
2013-06-27 03:11:00,68.0,67.0,29.57,WSW,250,0.0,2.0,97,0.00,,,0.19,,2013-06-27 08:11:00,
2013-06-27 03:22:00,69.0,68.0,29.57,WSW,250,0.0,1.0,97,0.00,,,0.19,,2013-06-27 08:22:00,
2013-06-27 03:34:00,69.0,68.0,29.57,WSW,250,0.0,1.0,97,0.00,,,0.19,,2013-06-27 08:34:00,
2013-06-27 03:43:00,69.0,68.0,29.56,WSW,250,0.0,3.0,97,0.00,,,0.19,,2013-06-27 08:43:00,
2013-06-27 03:52:00,69.0,68.0,29.56,WSW,250,0.0,1.0,97,0.00,,,0.19,,2013-06-27 08:52:00,
2013-06-27 04:02:00,69.0,68.0,29.56,WSW,250,0.0,3.0,97,0.00,,,0.19,,2013-06-27 09:02:00,
2013-06-27 04:11:00,69.0,68.0,29.56,WSW,250,2.0,3.0,97,0.00,,,0.19,,2013-06-27 09:11:00,
2013-06-27 04:22:00,69.0,68.0,29.56,WSW,250,2.0,3.0,97,0.00,,,0.19,,2013-06-27 09:22:00,
2013-06-27 04:34:00,69.0,68.0,29.56,WSW,250,2.0,3.0,97,0.00,,,0.19,,2013-06-27 09:34:00,
2013-06-27 04:43:00,69.0,68.0,29.56,WSW,250,0.0,1.0,97,0.00,,,0.19,,2013-06-27 09:43:00,
2013-06-27 04:53:00,69.0,68.0,29.56,WSW,250,0.0,0.0,97,0.00,,,0.19,,2013-06-27 09:53:00,
2013-06-27 05:01:00,69.0,68.0,29.56,WSW,250,0.0,1.0,97,0.00,,,0.19,,2013-06-27 10:01:00,
2013-06-27 05:11:00,69.0,68.0,29.56,WSW,250,0.0,0.0,97,0.00,,,0.19,,2013-06-27 10:11:00,
2013-06-27 05:22:00,69.0,68.0,29.56,WSW,250,0.0,0.0,97,0.00,,,0.19,,2013-06-27 10:22:00,
2013-06-27 05:32:00,68.0,67.0,29.57,WSW,250,0.0,0.0,97,0.00,,,0.19,,2013-06-27 10:32:00,
2013-06-27 05:44:00,68.0,67.0,29.57,WSW,250,0.0,0.0,97,0.00,,,0.19,,2013-06-27 10:44:00,
2013-06-27 05:54:00,68.0,67.0,29.57,WSW,250,0.0,0.0,97,0.00,,,0.19,,2013-06-27 10:54:00,
2013-06-27 06:02:00,68.0,67.0,29.57,WSW,250,0.0,0.0,97,0.00,,,0.19,,2013-06-27 11:02:00,
2013-06-27 07:02:00,70.0,69.0,29.57,SW,236,3.0,5.0,97,0.00,,,0.17,,2013-06-27 12:02:00,
2013-06-27 07:11:00,70.0,69.0,29.57,SW,236,3.0,5.0,97,0.00,,,0.17,,2013-06-27 12:11:00,
2013-06-27 07:22:00,70.0,69.0,29.57,WSW,251,3.0,4.0,96,0.00,,,0.17,,2013-06-27 12:22:00,
2013-06-27 07:34:00,71.0,70.0,29.57,WSW,251,4.0,5.0,96,0.00,,,0.17,,2013-06-27 12:34:00,
2013-06-27 07:42:00,71.0,70.0,29.57,WSW,251,4.0,5.0,96,0.00,,,0.17,,2013-06-27 12:42:00,
2013-06-27 08:01:00,71.0,70.0,29.57,WSW,251,4.0,5.0,96,0.00,,,0.17,,2013-06-27 13:01:00,
2013-06-27 08:11:00,73.0,71.0,29.57,West,269,2.0,6.0,94,0.00,,,0.17,,2013-06-27 13:11:00,
2013-06-27 08:22:00,73.0,71.0,29.57,West,261,3.0,9.0,93,0.00,,,0.17,,2013-06-27 13:22:00,
2013-06-27 08:34:00,73.0,71.0,29.57,West,261,3.0,9.0,93,0.00,,,0.17,,2013-06-27 13:34:00,
2013-06-27 08:43:00,74.0,71.0,29.57,West,263,3.0,6.0,90,0.00,,,0.17,,2013-06-27 13:43:00,
2013-06-27 08:52:00,74.0,71.0,29.57,West,265,3.0,6.0,89,0.00,,,0.17,,2013-06-27 13:52:00,
2013-06-27 09:02:00,74.0,71.0,29.57,West,265,3.0,6.0,89,0.00,,,0.17,,2013-06-27 14:02:00,
2013-06-27 09:11:00,75.0,71.0,29.57,West,269,3.0,6.0,87,0.00,,,0.12,,2013-06-27 14:11:00,
2013-06-27 09:22:00,75.0,71.0,29.57,West,271,5.0,8.0,86,0.00,,,0.08,,2013-06-27 14:22:00,
2013-06-27 09:33:00,76.0,71.0,29.57,West,267,4.0,8.0,85,0.00,,,0.02,,2013-06-27 14:33:00,
2013-06-27 09:43:00,76.0,71.0,29.57,West,267,4.0,8.0,85,0.00,,,0.02,,2013-06-27 14:43:00,
2013-06-27 10:12:00,78.0,71.0,29.57,West,269,6.0,10.0,80,0.00,,,0.01,,2013-06-27 15:12:00,
2013-06-27 10:22:00,78.0,71.0,29.57,West,269,6.0,10.0,80,0.00,,,0.01,,2013-06-27 15:22:00,
2013-06-27 10:33:00,78.0,71.0,29.57,West,269,6.0,10.0,80,0.00,,,0.01,,2013-06-27 15:33:00,
2013-06-27 10:42:00,78.0,71.0,29.57,West,269,6.0,10.0,80,0.00,,,0.01,,2013-06-27 15:42:00,
2013-06-27 10:52:00,78.0,71.0,29.57,West,269,6.0,10.0,80,0.00,,,0.01,,2013-06-27 15:52:00,
2013-06-27 11:02:00,80.0,69.0,29.56,West,267,0.0,10.0,69,0.00,,,0.00,,2013-06-27 16:02:00,
2013-06-27 11:11:00,80.0,68.0,29.56,WNW,299,0.0,3.0,67,0.00,,,0.00,,2013-06-27 16:11:00,
2013-06-27 11:23:00,81.0,69.0,29.56,West,268,0.0,7.0,68,0.00,,,0.00,,2013-06-27 16:23:00,
2013-06-27 11:43:00,82.0,69.0,29.57,West,269,7.0,9.0,64,0.00,,,0.00,,2013-06-27 16:43:00,
2013-06-27 11:53:00,82.0,66.0,29.57,NNW,344,0.0,5.0,59,0.00,,,0.00,,2013-06-27 16:53:00,
2013-06-27 12:01:00,84.0,68.0,29.56,West,260,0.0,3.0,59,0.00,,,0.00,,2013-06-27 17:01:00,
2013-06-27 12:11:00,84.0,69.0,29.56,WSW,245,0.0,3.0,60,0.00,,,0.00,,2013-06-27 17:11:00,
2013-06-27 12:22:00,83.0,68.0,29.56,West,265,8.0,9.0,61,0.00,,,0.00,,2013-06-27 17:22:00,
2013-06-27 12:33:00,82.0,67.0,29.57,West,264,0.0,7.0,60,0.00,,,0.00,,2013-06-27 17:33:00,
2013-06-27 12:43:00,82.0,67.0,29.57,West,264,0.0,7.0,60,0.00,,,0.00,,2013-06-27 17:43:00,
2013-06-27 12:53:00,82.0,67.0,29.57,West,264,0.0,7.0,60,0.00,,,0.00,,2013-06-27 17:53:00,
2013-06-27 13:01:00,83.0,67.0,29.56,West,266,0.0,3.0,59,0.00,,,0.00,,2013-06-27 18:01:00,
2013-06-27 13:11:00,83.0,67.0,29.56,West,270,3.0,6.0,58,0.00,,,0.00,,2013-06-27 18:11:00,
2013-06-27 13:22:00,83.0,66.0,29.56,West,280,3.0,7.0,56,0.00,,,0.00,,2013-06-27 18:22:00,
2013-06-27 13:32:00,83.0,66.0,29.56,West,280,3.0,7.0,56,0.00,,,0.00,,2013-06-27 18:32:00,
2013-06-27 13:44:00,84.0,67.0,29.56,WNW,294,2.0,7.0,57,0.00,,,0.00,,2013-06-27 18:44:00,
2013-06-27 13:52:00,84.0,67.0,29.56,WNW,294,2.0,7.0,57,0.00,,,0.00,,2013-06-27 18:52:00,
2013-06-27 14:01:00,83.0,67.0,29.55,West,259,5.0,7.0,58,0.00,,,0.00,,2013-06-27 19:01:00,
2013-06-27 14:11:00,83.0,64.0,29.55,WSW,255,8.0,8.0,53,0.00,,,0.00,,2013-06-27 19:11:00,
2013-06-27 14:23:00,83.0,64.0,29.55,WSW,255,8.0,8.0,53,0.00,,,0.00,,2013-06-27 19:23:00,
2013-06-27 14:34:00,82.0,66.0,29.54,WSW,248,4.0,6.0,59,0.00,,,0.00,,2013-06-27 19:34:00,
2013-06-27 14:42:00,83.0,66.0,29.54,West,272,5.0,10.0,57,0.00,,,0.00,,2013-06-27 19:42:00,
2013-06-27 14:53:00,83.0,66.0,29.54,West,272,5.0,10.0,57,0.00,,,0.00,,2013-06-27 19:53:00,
2013-06-27 15:02:00,81.0,67.0,29.54,NNW,333,0.0,4.0,62,0.00,,,0.00,,2013-06-27 20:02:00,
2013-06-27 15:11:00,81.0,67.0,29.54,NNW,333,0.0,4.0,62,0.00,,,0.00,,2013-06-27 20:11:00,
2013-06-27 16:36:00,72.0,66.0,29.54,NNE,25,0.0,0.0,81,0.00,,,0.00,,2013-06-27 21:36:00,
2013-06-27 16:46:00,72.0,67.0,29.53,SW,236,2.0,5.0,84,0.01,,,0.01,,2013-06-27 21:46:00,
2013-06-27 16:53:00,72.0,67.0,29.53,SW,236,2.0,5.0,84,0.01,,,0.01,,2013-06-27 21:53:00,
2013-06-27 17:06:00,74.0,69.0,29.51,WSW,250,4.0,4.0,84,0.01,,,0.01,,2013-06-27 22:06:00,
2013-06-27 17:15:00,74.0,69.0,29.51,WSW,250,4.0,4.0,84,0.01,,,0.01,,2013-06-27 22:15:00,
2013-06-27 17:23:00,76.0,68.0,29.50,West,265,3.0,7.0,77,0.01,,,0.01,,2013-06-27 22:23:00,
2013-06-27 17:35:00,77.0,69.0,29.49,SW,225,0.0,2.0,77,0.00,,,0.01,,2013-06-27 22:35:00,
2013-06-27 17:48:00,78.0,70.0,29.49,SW,235,3.0,3.0,76,0.00,,,0.01,,2013-06-27 22:48:00,
2013-06-27 17:58:00,78.0,69.0,29.49,WSW,246,3.0,5.0,74,0.00,,,0.01,,2013-06-27 22:58:00,
2013-06-27 18:05:00,78.0,69.0,29.49,WSW,246,0.0,1.0,75,0.00,,,0.01,,2013-06-27 23:05:00,
2013-06-27 18:15:00,78.0,70.0,29.49,WSW,246,0.0,3.0,76,0.00,,,0.01,,2013-06-27 23:15:00,
2013-06-27 18:25:00,78.0,70.0,29.49,WSW,246,0.0,3.0,76,0.00,,,0.01,,2013-06-27 23:25:00,
2013-06-27 18:34:00,78.0,68.0,29.49,WSW,246,2.0,2.0,71,0.00,,,0.01,,2013-06-27 23:34:00,
2013-06-27 18:45:00,78.0,68.0,29.49,WSW,246,2.0,2.0,71,0.00,,,0.01,,2013-06-27 23:45:00,
2013-06-27 18:55:00,78.0,68.0,29.49,WSW,246,3.0,3.0,71,0.00,,,0.01,,2013-06-27 23:55:00,
2013-06-27 19:13:00,79.0,69.0,29.49,West,265,5.0,6.0,71,0.00,,,0.01,,2013-06-28 00:13:00,
2013-06-27 19:45:00,79.0,69.0,29.49,West,261,3.0,5.0,71,0.00,,,0.01,,2013-06-28 00:45:00,
2013-06-27 19:54:00,78.0,69.0,29.49,WSW,254,5.0,6.0,75,0.00,,,0.01,,2013-06-28 00:54:00,
2013-06-27 20:14:00,78.0,69.0,29.49,WSW,254,5.0,6.0,75,0.00,,,0.01,,2013-06-28 01:14:00,
2013-06-27 20:25:00,77.0,70.0,29.49,WSW,250,0.0,0.0,78,0.00,,,0.01,,2013-06-28 01:25:00,
2013-06-27 20:35:00,77.0,70.0,29.49,WSW,250,0.0,0.0,78,0.00,,,0.01,,2013-06-28 01:35:00,
2013-06-27 20:48:00,77.0,70.0,29.49,WSW,250,0.0,0.0,78,0.00,,,0.01,,2013-06-28 01:48:00,
2013-06-27 20:57:00,76.0,69.0,29.49,WSW,250,0.0,0.0,80,0.00,,,0.01,,2013-06-28 01:57:00,
2013-06-27 21:07:00,75.0,70.0,29.49,WSW,250,0.0,2.0,84,0.00,,,0.01,,2013-06-28 02:07:00,
2013-06-27 21:17:00,76.0,71.0,29.49,WSW,250,3.0,3.0,84,0.00,,,0.01,,2013-06-28 02:17:00,
2013-06-27 21:27:00,75.0,70.0,29.49,WSW,250,0.0,2.0,84,0.00,,,0.01,,2013-06-28 02:27:00,
2013-06-27 21:36:00,75.0,70.0,29.49,WSW,250,0.0,2.0,84,0.00,,,0.01,,2013-06-28 02:36:00,
2013-06-27 21:49:00,75.0,70.0,29.49,WSW,250,0.0,2.0,84,0.00,,,0.01,,2013-06-28 02:49:00,
2013-06-27 21:54:00,75.0,70.0,29.49,WSW,250,0.0,2.0,84,0.00,,,0.01,,2013-06-28 02:54:00,
2013-06-27 22:28:00,74.0,67.0,29.52,ENE,73,0.0,2.0,80,0.00,,,0.01,,2013-06-28 03:28:00,
2013-06-27 22:39:00,74.0,67.0,29.52,ENE,73,0.0,2.0,80,0.00,,,0.01,,2013-06-28 03:39:00,
2013-06-27 22:46:00,73.0,68.0,29.51,ENE,59,2.0,2.0,85,0.00,,,0.01,,2013-06-28 03:46:00,
2013-06-27 22:56:00,73.0,68.0,29.51,ENE,59,2.0,2.0,85,0.00,,,0.01,,2013-06-28 03:56:00,
2013-06-27 23:02:00,73.0,68.0,29.51,ENE,59,2.0,2.0,85,0.00,,,0.01,,2013-06-28 04:02:00,
2013-06-27 23:11:00,71.0,67.0,29.51,ENE,59,0.0,0.0,86,0.00,,,0.01,,2013-06-28 04:11:00,
2013-06-27 23:22:00,70.0,66.0,29.51,ENE,59,0.0,0.0,87,0.00,,,0.01,,2013-06-28 04:22:00,
2013-06-27 23:33:00,70.0,66.0,29.52,ENE,59,0.0,0.0,87,0.00,,,0.01,,2013-06-28 04:33:00,
2013-06-27 23:43:00,69.0,65.0,29.52,ENE,59,0.0,0.0,87,0.00,,,0.01,,2013-06-28 04:43:00,
2013-06-27 23:53:00,69.0,65.0,29.52,ENE,59,0.0,0.0,86,0.00,,,0.01,,2013-06-28 04:53:00,